Check out our new BloomSky Weather System.

Active alerts


No alerts


Thunder radar  blitzortung!


Rain radar more information rain snow radar


Visit our other weather sites:

Template documentation
and downloads

And another site



Weather Underground History page Text

Daily Summary for January 3, 2017 Units:  Metric    English   Both
« Previous Day
Next Day »
Daily Weekly Monthly Yearly Custom
  High: Low: Average:
Temperature: 24.1 °C 8.3 °C 15.9 °C
Dew Point: 13.2 °C 4.5 °C 9.5 °C
Humidity: 99 % 37 % 70 %
Wind Speed: 19.3 km/h 0 km/h 3.4 km/h
Wind Gust: 27.4 km/h - -
Wind:- - West
Pressure: 1019.5 hPa 1012.8 hPa -
Precipitation: 0.25 mm    
Historical Graphs
 
 
Tabular Data for January 3, 2017
Time Temperature Dew Point Pressure Wind Wind Speed Wind Gust Humidity Rainfall Rate (Hourly)
00:02 11.6 °C 10.8 °C 1013.8 hPa Calm     95 % 0 mm
00:08 11.7 °C 10.9 °C 1013.8 hPa Calm     95 % 0 mm
00:13 11.6 °C 10.8 °C 1013.8 hPa Calm     95 % 0 mm
00:18 11.5 °C 10.7 °C 1013.8 hPa Calm     95 % 0 mm
00:23 11.3 °C 10.5 °C 1013.8 hPa Calm     95 % 0 mm
00:28 11.6 °C 11.1 °C 1013.8 hPa SSE 1.6 km/h 6.4 km/h 97 % 0 mm
00:33 12.1 °C 11.6 °C 1013.8 hPa South 1.6 km/h 9.7 km/h 97 % 0 mm
00:38 12.4 °C 11.8 °C 1013.8 hPa Calm   9.7 km/h 96 % 0 mm
00:43 12.5 °C 11.9 °C 1013.8 hPa SW 1.6 km/h 9.7 km/h 96 % 0 mm
00:48 12.6 °C 11.8 °C 1013.8 hPa Calm   4.8 km/h 95 % 0 mm
00:53 12.6 °C 11.7 °C 1013.8 hPa Calm   4.8 km/h 94 % 0 mm
00:58 12.6 °C 11.7 °C 1013.8 hPa Calm   3.2 km/h 94 % 0 mm
01:03 12.4 °C 11.3 °C 1013.8 hPa Calm   3.2 km/h 93 % 0 mm
01:08 12.4 °C 11.5 °C 1013.8 hPa SSE 1.6 km/h 1.6 km/h 94 % 0 mm
01:13 12.5 °C 11.6 °C 1013.8 hPa Calm   1.6 km/h 94 % 0 mm
01:18 12.6 °C 11.5 °C 1013.8 hPa Calm   1.6 km/h 93 % 0 mm
01:23 12.5 °C 11.4 °C 1013.8 hPa Calm   1.6 km/h 93 % 0 mm
01:28 12.3 °C 11.2 °C 1013.8 hPa Calm   1.6 km/h 93 % 0 mm
01:33 12.3 °C 11.2 °C 1014.1 hPa Calm   1.6 km/h 93 % 0 mm
01:38 12.3 °C 11.2 °C 1014.1 hPa Calm   1.6 km/h 93 % 0 mm
01:43 12.2 °C 10.9 °C 1014.1 hPa Calm   1.6 km/h 92 % 0 mm
01:48 12.1 °C 10.8 °C 1014.1 hPa Calm     92 % 0 mm
01:53 12 °C 10.7 °C 1013.8 hPa Calm     92 % 0 mm
01:58 11.8 °C 10.5 °C 1013.8 hPa Calm     92 % 0 mm
02:03 11.8 °C 10.7 °C 1013.8 hPa Calm     93 % 0 mm
02:08 11.7 °C 10.6 °C 1014.1 hPa Calm     93 % 0 mm
02:13 11.5 °C 10.4 °C 1014.1 hPa Calm     93 % 0 mm
02:18 11.4 °C 10.3 °C 1014.1 hPa Calm     93 % 0 mm
02:23 11.6 °C 10.7 °C 1014.1 hPa Calm     94 % 0 mm
02:28 11.7 °C 10.8 °C 1013.8 hPa Calm   1.6 km/h 94 % 0 mm
02:33 11.9 °C 11 °C 1013.8 hPa Calm   1.6 km/h 94 % 0 mm
02:38 11.8 °C 10.9 °C 1013.8 hPa Calm   1.6 km/h 94 % 0 mm
02:43 11.7 °C 10.8 °C 1013.8 hPa Calm   1.6 km/h 94 % 0 mm
02:48 11.6 °C 10.7 °C 1013.8 hPa Calm   1.6 km/h 94 % 0 mm
02:53 11.4 °C 10.5 °C 1013.8 hPa Calm   1.6 km/h 94 % 0 mm
02:58 11.2 °C 10.3 °C 1013.8 hPa Calm   1.6 km/h 94 % 0 mm
03:03 11.2 °C 10.4 °C 1013.8 hPa Calm   1.6 km/h 95 % 0 mm
03:08 11.2 °C 10.4 °C 1013.8 hPa Calm   1.6 km/h 95 % 0 mm
03:13 11.1 °C 10.3 °C 1013.4 hPa Calm   1.6 km/h 95 % 0 mm
03:18 10.9 °C 10.1 °C 1013.4 hPa Calm   1.6 km/h 95 % 0 mm
03:23 10.9 °C 10.1 °C 1013.4 hPa Calm   1.6 km/h 95 % 0 mm
03:28 10.8 °C 10 °C 1013.1 hPa Calm     95 % 0 mm
03:33 10.8 °C 10 °C 1013.4 hPa Calm     95 % 0 mm
03:38 10.8 °C 10 °C 1013.1 hPa Calm     95 % 0 mm
03:43 10.8 °C 10 °C 1013.1 hPa Calm     95 % 0 mm
03:48 10.7 °C 9.9 °C 1013.1 hPa Calm     95 % 0 mm
03:53 10.6 °C 9.8 °C 1013.4 hPa Calm     95 % 0 mm
03:58 10.4 °C 9.6 °C 1013.1 hPa Calm     95 % 0 mm
04:03 10.4 °C 9.8 °C 1013.1 hPa Calm     96 % 0 mm
04:08 10.5 °C 9.9 °C 1013.1 hPa Calm   1.6 km/h 96 % 0 mm
04:13 10.3 °C 9.7 °C 1013.1 hPa Calm   1.6 km/h 96 % 0 mm
04:18 10.3 °C 9.7 °C 1013.1 hPa Calm   1.6 km/h 96 % 0 mm
04:23 10.2 °C 9.6 °C 1013.1 hPa Calm     96 % 0 mm
04:28 10.1 °C 9.5 °C 1013.1 hPa Calm     96 % 0 mm
04:33 9.9 °C 9.3 °C 1013.1 hPa Calm     96 % 0 mm
04:38 9.8 °C 9.2 °C 1013.1 hPa Calm     96 % 0 mm
04:43 9.9 °C 9.3 °C 1013.1 hPa Calm   1.6 km/h 96 % 0 mm
04:48 9.9 °C 9.3 °C 1013.1 hPa Calm   1.6 km/h 96 % 0 mm
04:53 9.9 °C 9.4 °C 1013.1 hPa Calm   1.6 km/h 97 % 0 mm
04:58 10.1 °C 9.6 °C 1013.1 hPa Calm   1.6 km/h 97 % 0 mm
05:03 10.1 °C 9.6 °C 1013.1 hPa Calm   1.6 km/h 97 % 0 mm
05:08 10.1 °C 9.6 °C 1012.8 hPa Calm   1.6 km/h 97 % 0 mm
05:13 10 °C 9.5 °C 1012.8 hPa Calm   1.6 km/h 97 % 0 mm
05:18 9.9 °C 9.4 °C 1012.8 hPa Calm     97 % 0 mm
05:23 9.9 °C 9.4 °C 1012.8 hPa Calm     97 % 0 mm
05:28 9.8 °C 9.3 °C 1013.1 hPa Calm     97 % 0 mm
05:33 9.6 °C 9.1 °C 1013.1 hPa Calm     97 % 0 mm
05:38 9.6 °C 9.1 °C 1013.1 hPa Calm     97 % 0 mm
05:43 9.6 °C 9.1 °C 1013.1 hPa Calm   1.6 km/h 97 % 0 mm
05:49 9.6 °C 9.1 °C 1013.4 hPa Calm   1.6 km/h 97 % 0 mm
05:54 9.8 °C 9.5 °C 1013.4 hPa Calm   1.6 km/h 98 % 0 mm
05:59 9.9 °C 9.6 °C 1013.4 hPa Calm   1.6 km/h 98 % 0 mm
06:04 10 °C 9.7 °C 1013.4 hPa Calm   1.6 km/h 98 % 0 mm
06:09 10.2 °C 9.9 °C 1013.4 hPa Calm   1.6 km/h 98 % 0.25 mm
06:14 10.5 °C 10.3 °C 1013.4 hPa Calm   1.6 km/h 99 % 0.25 mm
06:19 10.6 °C 10.3 °C 1013.4 hPa Calm   1.6 km/h 98 % 0.25 mm
06:24 10.7 °C 10.4 °C 1013.4 hPa Calm   1.6 km/h 98 % 0.25 mm
06:29 10.7 °C 10.4 °C 1013.4 hPa Calm     98 % 0.25 mm
06:34 10.8 °C 10.5 °C 1013.4 hPa Calm     98 % 0.25 mm
06:39 10.9 °C 10.6 °C 1013.8 hPa Calm     98 % 0.25 mm
06:44 10.9 °C 10.6 °C 1013.8 hPa Calm     98 % 0.25 mm
06:49 10.8 °C 10.3 °C 1013.8 hPa Calm     97 % 0.25 mm
06:54 10.7 °C 10.2 °C 1013.8 hPa Calm     97 % 0.25 mm
06:59 10.8 °C 10.5 °C 1013.8 hPa Calm     98 % 0.25 mm
07:04 10.8 °C 10.5 °C 1014.1 hPa Calm     98 % 0.25 mm
07:09 10.6 °C 10.1 °C 1014.1 hPa Calm     97 % 0 mm
07:14 10.5 °C 10 °C 1014.1 hPa Calm     97 % 0 mm
07:19 10.3 °C 9.8 °C 1014.4 hPa Calm     97 % 0 mm
07:24 10.3 °C 10 °C 1014.4 hPa Calm     98 % 0 mm
07:29 10.5 °C 10.2 °C 1014.1 hPa Calm   1.6 km/h 98 % 0 mm
07:34 10.7 °C 10.4 °C 1014.4 hPa Calm   1.6 km/h 98 % 0 mm
07:39 10.8 °C 10.5 °C 1014.4 hPa SW 3.2 km/h 3.2 km/h 98 % 0 mm
07:44 11 °C 10.7 °C 1014.4 hPa South 3.2 km/h 3.2 km/h 98 % 0 mm
07:49 11.3 °C 11 °C 1014.4 hPa South 1.6 km/h 4.8 km/h 98 % 0 mm
07:54 11.6 °C 11.3 °C 1014.4 hPa SSW 3.2 km/h 6.4 km/h 98 % 0 mm
07:59 11.8 °C 11.5 °C 1014.4 hPa SSW 1.6 km/h 6.4 km/h 98 % 0 mm
08:04 12.2 °C 11.9 °C 1014.4 hPa SSW 3.2 km/h 6.4 km/h 98 % 0 mm
08:09 12.4 °C 12.1 °C 1014.4 hPa South 1.6 km/h 6.4 km/h 98 % 0 mm
08:14 12.8 °C 12.3 °C 1014.8 hPa WNW 3.2 km/h 6.4 km/h 97 % 0 mm
08:19 13.1 °C 12.3 °C 1014.8 hPa SW 1.6 km/h 6.4 km/h 95 % 0 mm
08:24 13.3 °C 12.4 °C 1014.8 hPa Calm   6.4 km/h 94 % 0 mm
08:29 13.6 °C 12.5 °C 1014.8 hPa Calm   6.4 km/h 93 % 0 mm
08:34 13.9 °C 12.5 °C 1015.1 hPa Calm   6.4 km/h 91 % 0 mm
08:39 14.3 °C 12.5 °C 1014.8 hPa Calm   8 km/h 89 % 0 mm
08:44 14.8 °C 12.7 °C 1014.8 hPa WNW 1.6 km/h 8 km/h 87 % 0 mm
08:49 15.2 °C 12.3 °C 1015.1 hPa WSW 1.6 km/h 8 km/h 83 % 0 mm
08:54 15.7 °C 12.4 °C 1015.1 hPa WSW 1.6 km/h 8 km/h 81 % 0 mm
08:59 16.1 °C 12.6 °C 1015.1 hPa Calm   8 km/h 80 % 0 mm
09:04 16.7 °C 13.2 °C 1015.1 hPa SSW 4.8 km/h 8 km/h 80 % 0 mm
09:09 17.1 °C 13.2 °C 1015.1 hPa South 3.2 km/h 8 km/h 78 % 0 mm
09:14 17.4 °C 12.7 °C 1015.1 hPa SW 1.6 km/h 8 km/h 74 % 0 mm
09:19 17.6 °C 12.5 °C 1015.1 hPa WSW 3.2 km/h 8 km/h 72 % 0 mm
09:24 17.9 °C 13 °C 1015.5 hPa SSW 1.6 km/h 8 km/h 73 % 0 mm
09:29 18.1 °C 12.3 °C 1015.5 hPa SSW 1.6 km/h 8 km/h 69 % 0 mm
09:34 18.4 °C 12.6 °C 1015.5 hPa Calm   8 km/h 69 % 0 mm
09:40 18.7 °C 12.4 °C 1015.5 hPa WSW 1.6 km/h 6.4 km/h 67 % 0 mm
09:45 19.1 °C 12.6 °C 1015.8 hPa SSW 3.2 km/h 6.4 km/h 66 % 0 mm
09:50 19.3 °C 12.1 °C 1015.8 hPa West 3.2 km/h 6.4 km/h 63 % 0 mm
09:55 19.3 °C 11.6 °C 1015.8 hPa WSW 3.2 km/h 6.4 km/h 61 % 0 mm
10:00 19.5 °C 11.8 °C 1015.8 hPa WSW 3.2 km/h 8 km/h 61 % 0 mm
10:05 19.7 °C 11.5 °C 1015.8 hPa Calm   8 km/h 59 % 0 mm
10:10 19.8 °C 11.6 °C 1016.1 hPa SW 3.2 km/h 8 km/h 59 % 0 mm
10:15 19.9 °C 11.6 °C 1016.1 hPa WSW 3.2 km/h 9.7 km/h 59 % 0 mm
10:20 20.3 °C 12 °C 1016.1 hPa WSW 1.6 km/h 9.7 km/h 59 % 0 mm
10:25 20.2 °C 11.1 °C 1016.1 hPa WNW 9.7 km/h 11.3 km/h 56 % 0 mm
10:30 20.4 °C 11.9 °C 1016.1 hPa NW 6.4 km/h 12.9 km/h 58 % 0 mm
10:35 20.6 °C 11.2 °C 1016.1 hPa WSW 3.2 km/h 12.9 km/h 55 % 0 mm
10:40 20.7 °C 10.5 °C 1016.1 hPa SW 6.4 km/h 16.1 km/h 52 % 0 mm
10:45 20.7 °C 10.8 °C 1016.1 hPa West 4.8 km/h 16.1 km/h 53 % 0 mm
10:50 20.8 °C 10.9 °C 1016.1 hPa SSW 1.6 km/h 16.1 km/h 53 % 0 mm
10:55 21.1 °C 10.6 °C 1015.8 hPa NNW 3.2 km/h 12.9 km/h 51 % 0 mm
11:00 21.2 °C 10.7 °C 1015.8 hPa West 3.2 km/h 12.9 km/h 51 % 0 mm
11:05 21.4 °C 9.6 °C 1015.8 hPa West 8 km/h 11.3 km/h 47 % 0 mm
11:10 21.3 °C 8.9 °C 1015.8 hPa WSW 4.8 km/h 12.9 km/h 45 % 0 mm
11:15 21.4 °C 9.3 °C 1015.8 hPa WNW 1.6 km/h 14.5 km/h 46 % 0 mm
11:20 21.7 °C 9.9 °C 1015.8 hPa WSW 3.2 km/h 14.5 km/h 47 % 0 mm
11:25 21.9 °C 9.8 °C 1015.8 hPa NW 1.6 km/h 14.5 km/h 46 % 0 mm
11:30 22.3 °C 9.1 °C 1015.8 hPa WNW 3.2 km/h 12.9 km/h 43 % 0 mm
11:35 22.4 °C 9.2 °C 1015.8 hPa South 3.2 km/h 12.9 km/h 43 % 0 mm
11:40 22.7 °C 9.5 °C 1015.8 hPa NW 3.2 km/h 11.3 km/h 43 % 0 mm
11:45 22.4 °C 9.2 °C 1015.5 hPa West 3.2 km/h 14.5 km/h 43 % 0 mm
11:50 22.6 °C 9 °C 1015.5 hPa SW 6.4 km/h 14.5 km/h 42 % 0 mm
11:55 22.6 °C 9.4 °C 1015.1 hPa NW 3.2 km/h 14.5 km/h 43 % 0 mm
12:00 22.6 °C 9.7 °C 1015.1 hPa SW 4.8 km/h 9.7 km/h 44 % 0 mm
12:05 22.7 °C 9.5 °C 1015.1 hPa SW 3.2 km/h 11.3 km/h 43 % 0 mm
12:10 22.8 °C 9.9 °C 1014.8 hPa WSW 4.8 km/h 12.9 km/h 44 % 0 mm
12:15 22.8 °C 9.2 °C 1014.8 hPa SSW 4.8 km/h 12.9 km/h 42 % 0 mm
12:20 22.9 °C 9.3 °C 1014.8 hPa West 3.2 km/h 12.9 km/h 42 % 0 mm
12:25 22.9 °C 8.9 °C 1014.8 hPa NW 6.4 km/h 12.9 km/h 41 % 0 mm
12:30 22.9 °C 10 °C 1014.8 hPa SW 1.6 km/h 11.3 km/h 44 % 0 mm
12:35 23.2 °C 8.9 °C 1014.8 hPa SW 6.4 km/h 11.3 km/h 40 % 0 mm
12:40 23.4 °C 9.8 °C 1014.4 hPa West 3.2 km/h 11.3 km/h 42 % 0 mm
12:45 23.4 °C 9 °C 1014.4 hPa SW 4.8 km/h 11.3 km/h 40 % 0 mm
12:51 23.3 °C 9.3 °C 1014.4 hPa SW 8 km/h 11.3 km/h 41 % 0 mm
12:56 23.3 °C 9.3 °C 1014.4 hPa WSW 3.2 km/h 12.9 km/h 41 % 0 mm
13:01 23.6 °C 9.2 °C 1014.4 hPa NE 4.8 km/h 12.9 km/h 40 % 0 mm
13:06 23.7 °C 8.5 °C 1014.1 hPa SSW 8 km/h 12.9 km/h 38 % 0 mm
13:11 23.4 °C 8.3 °C 1014.1 hPa WSW 4.8 km/h 9.7 km/h 38 % 0 mm
13:16 23.3 °C 8.6 °C 1014.1 hPa SSE 1.6 km/h 11.3 km/h 39 % 0 mm
13:21 23.2 °C 9.2 °C 1014.1 hPa West 3.2 km/h 11.3 km/h 41 % 0 mm
13:26 23.5 °C 9.8 °C 1013.8 hPa WSW 1.6 km/h 11.3 km/h 42 % 0 mm
13:31 23.5 °C 8.7 °C 1013.8 hPa West 6.4 km/h 9.7 km/h 39 % 0 mm
13:36 23.3 °C 9.3 °C 1013.8 hPa SW 1.6 km/h 11.3 km/h 41 % 0 mm
13:41 23.6 °C 9.6 °C 1013.8 hPa Calm   11.3 km/h 41 % 0 mm
13:46 23.7 °C 9.7 °C 1013.8 hPa SW 4.8 km/h 11.3 km/h 41 % 0 mm
13:51 24.1 °C 10 °C 1013.8 hPa SSW 1.6 km/h 6.4 km/h 41 % 0 mm
13:56 24 °C 9.6 °C 1013.8 hPa East 3.2 km/h 9.7 km/h 40 % 0 mm
14:01 23.9 °C 9.5 °C 1013.8 hPa WSW 4.8 km/h 9.7 km/h 40 % 0 mm
14:06 23.9 °C 9.5 °C 1013.8 hPa WNW 6.4 km/h 9.7 km/h 40 % 0 mm
14:11 23.7 °C 9.3 °C 1013.8 hPa WNW 3.2 km/h 11.3 km/h 40 % 0 mm
14:16 23.8 °C 9.4 °C 1013.8 hPa WSW 1.6 km/h 11.3 km/h 40 % 0 mm
14:21 23.8 °C 9 °C 1013.8 hPa West 3.2 km/h 12.9 km/h 39 % 0 mm
14:26 23.9 °C 8.3 °C 1013.8 hPa South 1.6 km/h 12.9 km/h 37 % 0 mm
14:31 23.9 °C 8.7 °C 1013.8 hPa NW 4.8 km/h 12.9 km/h 38 % 0 mm
14:36 23.8 °C 8.6 °C 1013.8 hPa NW 1.6 km/h 12.9 km/h 38 % 0 mm
14:41 23.7 °C 8.9 °C 1013.8 hPa SSW 3.2 km/h 12.9 km/h 39 % 0 mm
14:46 23.7 °C 8.5 °C 1013.8 hPa WNW 3.2 km/h 12.9 km/h 38 % 0 mm
14:51 23.6 °C 9.2 °C 1013.8 hPa West 3.2 km/h 9.7 km/h 40 % 0 mm
14:56 23.6 °C 8.4 °C 1013.8 hPa WNW 4.8 km/h 9.7 km/h 38 % 0 mm
15:01 23.5 °C 9.1 °C 1013.8 hPa NW 4.8 km/h 9.7 km/h 40 % 0 mm
15:06 23.5 °C 9.1 °C 1013.8 hPa Calm   8 km/h 40 % 0 mm
15:11 23.6 °C 9.2 °C 1014.1 hPa Calm   9.7 km/h 40 % 0 mm
15:16 23.6 °C 8.4 °C 1014.1 hPa WSW 3.2 km/h 9.7 km/h 38 % 0 mm
15:21 23.4 °C 8.3 °C 1014.1 hPa NNE 3.2 km/h 9.7 km/h 38 % 0 mm
15:26 23.4 °C 8.7 °C 1013.8 hPa WNW 3.2 km/h 11.3 km/h 39 % 0 mm
15:31 23.4 °C 8.3 °C 1014.1 hPa NW 6.4 km/h 11.3 km/h 38 % 0 mm
15:36 23.3 °C 7.8 °C 1013.8 hPa NW 1.6 km/h 11.3 km/h 37 % 0 mm
15:41 23.2 °C 8.1 °C 1014.1 hPa NW 4.8 km/h 9.7 km/h 38 % 0 mm
15:47 23.2 °C 8.9 °C 1014.1 hPa NW 3.2 km/h 11.3 km/h 40 % 0 mm
15:52 23.3 °C 8.2 °C 1014.1 hPa NW 1.6 km/h 11.3 km/h 38 % 0 mm
15:57 23.3 °C 8.9 °C 1014.1 hPa Calm   11.3 km/h 40 % 0 mm
16:02 23.4 °C 8.7 °C 1014.1 hPa NW 6.4 km/h 9.7 km/h 39 % 0 mm
16:07 23.4 °C 8.3 °C 1014.1 hPa NW 9.7 km/h 9.7 km/h 38 % 0 mm
16:12 23.2 °C 8.5 °C 1014.1 hPa NW 6.4 km/h 12.9 km/h 39 % 0 mm
16:17 23.1 °C 8.8 °C 1014.1 hPa WSW 1.6 km/h 12.9 km/h 40 % 0 mm
16:22 23.2 °C 9.2 °C 1014.1 hPa West 3.2 km/h 12.9 km/h 41 % 0 mm
16:23 23.2 °C 8.9 °C 1014.1 hPa WSW 1.6 km/h 12.9 km/h 40 % 0 mm
16:28 23.2 °C 8.9 °C 1014.1 hPa WNW 1.6 km/h 11.3 km/h 40 % 0 mm
16:33 23.2 °C 9.6 °C 1014.1 hPa Calm   8 km/h 42 % 0 mm
16:38 23.2 °C 9.6 °C 1014.1 hPa Calm   8 km/h 42 % 0 mm
16:43 23.2 °C 9.6 °C 1014.1 hPa Calm   4.8 km/h 42 % 0 mm
16:48 23.1 °C 9.8 °C 1014.4 hPa Calm   3.2 km/h 43 % 0 mm
16:53 22.8 °C 9.2 °C 1014.4 hPa Calm   4.8 km/h 42 % 0 mm
16:58 22.6 °C 9.4 °C 1014.4 hPa Calm   4.8 km/h 43 % 0 mm
17:03 22.3 °C 9.5 °C 1014.4 hPa Calm   4.8 km/h 44 % 0 mm
17:08 22 °C 9.5 °C 1014.4 hPa Calm   6.4 km/h 45 % 0 mm
17:13 21.7 °C 9.2 °C 1014.4 hPa West 1.6 km/h 6.4 km/h 45 % 0 mm
17:18 21.4 °C 9.3 °C 1014.4 hPa Calm   6.4 km/h 46 % 0 mm
17:23 21.1 °C 9.3 °C 1014.4 hPa Calm   1.6 km/h 47 % 0 mm
17:28 20.7 °C 9.6 °C 1014.4 hPa Calm   1.6 km/h 49 % 0 mm
17:33 20.4 °C 9.6 °C 1014.4 hPa Calm   1.6 km/h 50 % 0 mm
17:38 20 °C 9.6 °C 1014.4 hPa Calm   1.6 km/h 51 % 0 mm
17:43 19.6 °C 9.5 °C 1014.8 hPa Calm   1.6 km/h 52 % 0 mm
17:48 19.2 °C 9.4 °C 1014.8 hPa Calm   1.6 km/h 53 % 0 mm
17:54 19 °C 9.5 °C 1015.1 hPa Calm   1.6 km/h 54 % 0 mm
17:59 18.9 °C 9.1 °C 1015.1 hPa WNW 3.2 km/h 3.2 km/h 53 % 0 mm
18:04 19.1 °C 9 °C 1015.1 hPa NNW 3.2 km/h 6.4 km/h 52 % 0 mm
18:09 19.3 °C 8.9 °C 1015.1 hPa NW 1.6 km/h 6.4 km/h 51 % 0 mm
18:14 19.3 °C 8.6 °C 1015.1 hPa NW 1.6 km/h 6.4 km/h 50 % 0 mm
18:19 19.6 °C 8.6 °C 1015.5 hPa NW 3.2 km/h 8 km/h 49 % 0 mm
18:24 19.6 °C 8.3 °C 1015.5 hPa NW 6.4 km/h 9.7 km/h 48 % 0 mm
18:29 19.6 °C 8.3 °C 1015.5 hPa NW 4.8 km/h 9.7 km/h 48 % 0 mm
18:34 19.4 °C 8.1 °C 1015.5 hPa NW 6.4 km/h 12.9 km/h 48 % 0 mm
18:39 19.3 °C 8.3 °C 1015.8 hPa Calm   12.9 km/h 49 % 0 mm
18:44 19 °C 8 °C 1015.8 hPa West 1.6 km/h 12.9 km/h 49 % 0 mm
18:49 18.8 °C 7.9 °C 1015.8 hPa NW 8 km/h 8 km/h 49 % 0 mm
18:54 18.8 °C 7.6 °C 1015.8 hPa NNW 6.4 km/h 9.7 km/h 48 % 0 mm
18:59 18.7 °C 7.5 °C 1016.1 hPa NNW 9.7 km/h 12.9 km/h 48 % 0 mm
19:04 18.6 °C 8 °C 1016.1 hPa NNW 8 km/h 17.7 km/h 50 % 0 mm
19:09 18.4 °C 8.1 °C 1016.1 hPa NW 8 km/h 19.3 km/h 51 % 0 mm
19:14 18.2 °C 8.5 °C 1016.1 hPa NNW 6.4 km/h 19.3 km/h 53 % 0 mm
19:19 17.9 °C 8.5 °C 1016.1 hPa WNW 11.3 km/h 19.3 km/h 54 % 0 mm
19:24 17.8 °C 8.6 °C 1016.5 hPa NNW 8 km/h 17.7 km/h 55 % 0 mm
19:29 17.6 °C 8.7 °C 1016.5 hPa NW 4.8 km/h 20.9 km/h 56 % 0 mm
19:34 17.3 °C 8.7 °C 1016.8 hPa NW 9.7 km/h 20.9 km/h 57 % 0 mm
19:39 17 °C 8.9 °C 1016.8 hPa NW 8 km/h 25.7 km/h 59 % 0 mm
19:44 16.6 °C 8.8 °C 1017.2 hPa NNW 16.1 km/h 25.7 km/h 60 % 0 mm
19:49 16.3 °C 9 °C 1017.2 hPa NNW 11.3 km/h 25.7 km/h 62 % 0 mm
19:54 15.9 °C 8.6 °C 1017.2 hPa WSW 6.4 km/h 24.1 km/h 62 % 0 mm
19:59 15.7 °C 8.7 °C 1017.2 hPa NW 6.4 km/h 24.1 km/h 63 % 0 mm
20:04 15.5 °C 8.7 °C 1017.2 hPa NW 6.4 km/h 19.3 km/h 64 % 0 mm
20:09 15.3 °C 8.8 °C 1017.2 hPa West 11.3 km/h 19.3 km/h 65 % 0 mm
20:14 15 °C 8.7 °C 1017.5 hPa NNW 6.4 km/h 17.7 km/h 66 % 0 mm
20:19 14.7 °C 8.4 °C 1017.5 hPa WNW 11.3 km/h 22.5 km/h 66 % 0 mm
20:24 14.6 °C 8.5 °C 1017.5 hPa NW 9.7 km/h 22.5 km/h 67 % 0 mm
20:29 14.3 °C 8.5 °C 1017.5 hPa NNW 6.4 km/h 22.5 km/h 68 % 0 mm
20:34 14.1 °C 8.3 °C 1017.8 hPa NNW 11.3 km/h 19.3 km/h 68 % 0 mm
20:39 13.8 °C 8 °C 1017.8 hPa NW 16.1 km/h 17.7 km/h 68 % 0 mm
20:44 13.6 °C 8 °C 1017.8 hPa North 14.5 km/h 25.7 km/h 69 % 0 mm
20:49 13.4 °C 7.8 °C 1017.8 hPa NNW 9.7 km/h 25.7 km/h 69 % 0 mm
20:54 13.2 °C 7.8 °C 1017.8 hPa NNW 9.7 km/h 25.7 km/h 70 % 0 mm
20:59 13 °C 7.7 °C 1018.2 hPa NNW 12.9 km/h 24.1 km/h 70 % 0 mm
21:04 12.8 °C 7.7 °C 1018.2 hPa NNW 8 km/h 27.4 km/h 71 % 0 mm
21:09 12.7 °C 7.8 °C 1018.2 hPa West 6.4 km/h 27.4 km/h 72 % 0 mm
21:15 12.5 °C 7.6 °C 1018.2 hPa NNW 12.9 km/h 27.4 km/h 72 % 0 mm
21:20 12.3 °C 7.6 °C 1018.2 hPa NNW 14.5 km/h 19.3 km/h 73 % 0 mm
21:25 12.2 °C 7.7 °C 1018.2 hPa WNW 6.4 km/h 17.7 km/h 74 % 0 mm
21:30 12.1 °C 7.6 °C 1018.5 hPa WNW 9.7 km/h 17.7 km/h 74 % 0 mm
21:35 11.9 °C 7.4 °C 1018.5 hPa NW 8 km/h 16.1 km/h 74 % 0 mm
21:40 11.7 °C 7.2 °C 1018.5 hPa NW 8 km/h 16.1 km/h 74 % 0 mm
21:45 11.4 °C 7.1 °C 1018.5 hPa NW 9.7 km/h 16.1 km/h 75 % 0 mm
21:50 11.3 °C 7 °C 1018.8 hPa NW 14.5 km/h 16.1 km/h 75 % 0 mm
21:55 11.1 °C 7 °C 1018.8 hPa NW 8 km/h 20.9 km/h 76 % 0 mm
22:00 10.9 °C 6.8 °C 1018.8 hPa NW 3.2 km/h 20.9 km/h 76 % 0 mm
22:05 10.7 °C 6.8 °C 1018.8 hPa NW 8 km/h 20.9 km/h 77 % 0 mm
22:10 10.6 °C 6.7 °C 1018.8 hPa NNE 8 km/h 19.3 km/h 77 % 0 mm
22:15 10.4 °C 6.5 °C 1018.8 hPa NW 14.5 km/h 19.3 km/h 77 % 0 mm
22:20 10.3 °C 6.6 °C 1018.8 hPa NW 8 km/h 24.1 km/h 78 % 0 mm
22:25 10.2 °C 6.5 °C 1018.8 hPa WNW 4.8 km/h 24.1 km/h 78 % 0 mm
22:30 10.1 °C 6.4 °C 1019.2 hPa West 8 km/h 24.1 km/h 78 % 0 mm
22:35 9.9 °C 6.2 °C 1019.2 hPa NNW 8 km/h 19.3 km/h 78 % 0 mm
22:40 9.8 °C 6.3 °C 1019.2 hPa North 16.1 km/h 19.3 km/h 79 % 0 mm
22:45 9.7 °C 6.2 °C 1019.2 hPa NW 9.7 km/h 20.9 km/h 79 % 0 mm
22:50 9.6 °C 6.1 °C 1019.2 hPa WNW 12.9 km/h 20.9 km/h 79 % 0 mm
22:55 9.6 °C 6.3 °C 1019.2 hPa NW 6.4 km/h 20.9 km/h 80 % 0 mm
23:00 9.4 °C 6.1 °C 1019.5 hPa Calm   17.7 km/h 80 % 0 mm
23:05 9.4 °C 6.1 °C 1019.5 hPa NNW 9.7 km/h 16.1 km/h 80 % 0 mm
23:10 9.3 °C 6 °C 1019.5 hPa NW 8 km/h 17.7 km/h 80 % 0 mm
23:15 9.2 °C 6.1 °C 1019.5 hPa North 6.4 km/h 19.3 km/h 81 % 0 mm
23:20 9.1 °C 6 °C 1019.5 hPa NNW 6.4 km/h 19.3 km/h 81 % 0 mm
23:25 9 °C 5.6 °C 1019.5 hPa WNW 12.9 km/h 20.9 km/h 79 % 0 mm
23:30 8.9 °C 5.3 °C 1019.5 hPa NW 11.3 km/h 25.7 km/h 78 % 0 mm
23:35 8.7 °C 4.9 °C 1019.5 hPa NNW 6.4 km/h 25.7 km/h 77 % 0 mm
23:40 8.6 °C 4.8 °C 1019.5 hPa NNW 19.3 km/h 27.4 km/h 77 % 0 mm
23:45 8.5 °C 4.7 °C 1019.5 hPa NW 12.9 km/h 27.4 km/h 77 % 0 mm
23:50 8.4 °C 4.6 °C 1019.5 hPa NW 6.4 km/h 27.4 km/h 77 % 0 mm
23:55 8.3 °C 4.5 °C 1019.5 hPa WNW 9.7 km/h 25.7 km/h 77 % 0 mm
Spring, Texas: Villages of Bridgestone
Compliments of Weather Underground - 2.75 mb

Script developed by  Jim McMurry - jmcmurry@mwt.net Adapted for the template by  Wim van der Kuil - Leuven-Template.eu

You find our weather info also at:

UK Metoffice

WeatherCloud

Weather Underground

Mid-South Weather Network

AWEKAS

Citizen Weather Observer Program (CWOP)

HAMweather, WeatherForYou, PWS Weather

Equipment we use:

Weather-station
Davis Vantage Vue

Weather-program
Meteohub

Weather-server
Debian 7.9 x86 (Guest)

Provider
DreamHost

Davis Vantage Vue

Meteohub

Debian 7.9 x86 (Guest)

DreamHost